ELP weather

El Paso International Airport
El Paso, Texas, United States

Public forecast

Using degrees Fahrenheit for public forecast. Weather courtesy of forecast.io.

Current aviation weather report (METAR) for El Paso International Airport

Retrieved 2019/10/21 12:51 UTC (46 minutes ago):

KELP 211251Z 34003KT 10SM CLR 12/M14 A3003 RMK AO2 PRESFR SLP118 T01221144

Aviation forecast (TAF) for El Paso International Airport

Retrieved 2019/10/21 12:22 UTC (1 hour ago):

TAF KELP 211120Z 2112/2212 33010KT P6SM SKC FM212100 27009KT P6SM SKC FM220400 36007KT P6SM SKC